Time;durP1;ratioP1;P1;durP2;ratioP2;P2;SDS_P1;SDS_P2;PMS_P1;PMS_P2;Temp;Humidity;BMP_temperature;BMP_pressure;BME280_temperature;BME280_humidity;BME280_pressure;Samples;Min_cycle;Max_cycle;Signal;HPM_P1;HPM_P2
2022/10/22 00:01:42;;;;;;;1.60;1.00;;;15.30;98.20;;;;;;5046626;28;20490;-79
2022/10/22 00:04:09;;;;;;;1.60;1.00;;;15.30;98.20;;;;;;5056072;28;20492;-77
2022/10/22 00:06:38;;;;;;;1.83;1.30;;;15.30;98.20;;;;;;5049405;28;20489;-77
2022/10/22 00:09:05;;;;;;;1.60;1.00;;;15.30;98.20;;;;;;5059789;28;20486;-79
2022/10/22 00:11:32;;;;;;;1.60;1.00;;;15.30;98.20;;;;;;5052750;28;21123;-77
2022/10/22 00:13:59;;;;;;;1.60;1.00;;;15.30;98.20;;;;;;5060211;28;20469;-78
2022/10/22 00:16:26;;;;;;;1.60;1.00;;;15.30;98.20;;;;;;5054703;28;20577;-79
2022/10/22 00:18:53;;;;;;;1.87;1.57;;;15.30;98.20;;;;;;5062689;28;20461;-79
2022/10/22 00:21:20;;;;;;;1.60;1.00;;;15.30;98.20;;;;;;5050882;28;20475;-78
2022/10/22 00:23:49;;;;;;;1.60;1.00;;;15.30;98.20;;;;;;5054513;28;20476;-76
2022/10/22 00:26:16;;;;;;;1.60;1.10;;;15.30;98.20;;;;;;5058487;28;20478;-76
2022/10/22 00:28:43;;;;;;;1.60;1.00;;;15.30;98.20;;;;;;5066266;28;20465;-77
2022/10/22 00:31:10;;;;;;;1.60;1.00;;;15.30;98.20;;;;;;5057983;28;20474;-78
2022/10/22 00:33:37;;;;;;;1.60;1.00;;;15.30;98.20;;;;;;5052030;28;20513;-79
2022/10/22 00:36:05;;;;;;;1.60;1.00;;;15.30;98.20;;;;;;5051404;28;20548;-80
2022/10/22 00:38:33;;;;;;;1.60;1.13;;;15.30;98.20;;;;;;5055373;28;20462;-76
2022/10/22 00:41:01;;;;;;;1.60;1.00;;;15.30;98.20;;;;;;5059620;28;20526;-78
2022/10/22 00:43:28;;;;;;;1.60;1.00;;;15.40;98.20;;;;;;5054634;28;20484;-76
2022/10/22 00:45:55;;;;;;;1.60;1.00;;;15.40;98.20;;;;;;5063738;28;20492;-77
2022/10/22 00:48:25;;;;;;;1.60;1.10;;;15.30;98.20;;;;;;5056238;28;20470;-76
2022/10/22 00:50:55;;;;;;;1.60;1.00;;;15.40;98.20;;;;;;5064551;28;20487;-79
2022/10/22 00:53:26;;;;;;;1.60;1.00;;;15.40;98.20;;;;;;5057198;28;20462;-77
2022/10/22 00:55:55;;;;;;;1.60;1.10;;;15.40;98.20;;;;;;5062021;28;20485;-78
2022/10/22 00:58:27;;;;;;;1.60;1.00;;;15.40;98.20;;;;;;5060571;28;21038;-77
2022/10/22 01:00:55;;;;;;;1.60;0.90;;;15.40;98.20;;;;;;5057523;28;20475;-77
2022/10/22 01:03:22;;;;;;;1.60;1.00;;;15.40;98.20;;;;;;5081969;28;20484;-79
2022/10/22 01:05:56;;;;;;;1.60;1.00;;;15.40;98.20;;;;;;5062397;28;20572;-77
2022/10/22 01:08:32;;;;;;;1.60;1.00;;;15.30;98.20;;;;;;5069061;28;20465;-77
2022/10/22 01:11:12;;;;;;;1.60;1.00;;;15.30;98.20;;;;;;5063629;28;20590;-76
2022/10/22 01:13:53;;;;;;;1.60;1.10;;;15.30;98.20;;;;;;5069350;28;20467;-78
2022/10/22 01:16:27;;;;;;;1.60;1.00;;;15.30;98.20;;;;;;5061662;28;20552;-76
2022/10/22 01:19:03;;;;;;;1.60;1.03;;;15.30;98.20;;;;;;5068862;28;20975;-75
2022/10/22 01:21:35;;;;;;;1.60;1.00;;;15.30;98.20;;;;;;5057069;28;20481;-77
2022/10/22 01:24:36;;;;;;;1.60;1.00;;;15.30;98.20;;;;;;5058645;28;20541;-77
2022/10/22 01:27:19;;;;;;;1.60;1.00;;;15.30;98.20;;;;;;5057431;28;20489;-78
2022/10/22 01:29:50;;;;;;;1.60;1.00;;;15.30;98.20;;;;;;5084761;28;20456;-77
2022/10/22 01:32:20;;;;;;;1.60;1.00;;;15.30;98.20;;;;;;5067709;28;20978;-76
2022/10/22 01:34:52;;;;;;;1.60;1.00;;;15.30;98.20;;;;;;5101426;28;20460;-75
2022/10/22 01:37:21;;;;;;;1.60;1.00;;;15.30;98.20;;;;;;5083404;28;20485;-77
2022/10/22 01:39:50;;;;;;;2.10;1.77;;;15.30;98.20;;;;;;5073030;28;20464;-77
2022/10/22 01:42:24;;;;;;;1.60;0.90;;;15.30;98.20;;;;;;5056554;28;20665;-79
2022/10/22 01:44:53;;;;;;;1.60;1.10;;;15.30;98.20;;;;;;5062358;28;20472;-80
2022/10/22 01:47:31;;;;;;;1.60;0.90;;;15.30;98.20;;;;;;5052039;28;20483;-78
2022/10/22 01:50:19;;;;;;;1.60;1.00;;;15.30;98.20;;;;;;5072234;28;20739;-77
2022/10/22 01:53:00;;;;;;;1.60;1.00;;;15.30;98.20;;;;;;5047254;28;20497;-76
2022/10/22 01:55:31;;;;;;;1.60;1.00;;;15.30;98.20;;;;;;5069599;28;20568;-77
2022/10/22 01:58:05;;;;;;;1.60;1.00;;;15.30;98.20;;;;;;5052376;28;20717;-78
2022/10/22 02:00:38;;;;;;;3.50;1.20;;;15.30;98.20;;;;;;5075990;28;20456;-76
2022/10/22 02:03:12;;;;;;;1.60;1.00;;;15.30;98.20;;;;;;5049460;28;20481;-78
2022/10/22 02:05:44;;;;;;;1.60;1.00;;;15.30;98.20;;;;;;5069747;28;20881;-78
2022/10/22 02:08:15;;;;;;;1.60;1.00;;;15.30;98.20;;;;;;5041964;28;20490;-77
2022/10/22 02:10:46;;;;;;;1.60;1.00;;;15.30;98.20;;;;;;5071633;28;20498;-78
2022/10/22 02:13:17;;;;;;;1.60;1.00;;;15.30;98.20;;;;;;5044383;28;20472;-76
2022/10/22 02:15:46;;;;;;;1.60;1.00;;;15.30;98.20;;;;;;5081987;28;20513;-77
2022/10/22 02:18:14;;;;;;;1.60;1.00;;;15.30;98.20;;;;;;5042543;28;20506;-75
2022/10/22 02:20:42;;;;;;;1.60;1.00;;;15.20;98.20;;;;;;5072350;28;20464;-77
2022/10/22 02:23:11;;;;;;;1.60;1.00;;;15.30;98.20;;;;;;5046563;28;20497;-79
2022/10/22 02:25:41;;;;;;;1.60;1.00;;;15.30;98.20;;;;;;5062311;28;20933;-77
2022/10/22 02:28:16;;;;;;;1.60;1.00;;;15.30;98.20;;;;;;5056237;28;20517;-78
2022/10/22 02:30:50;;;;;;;1.60;1.00;;;15.30;98.20;;;;;;5068031;28;21009;-76
2022/10/22 02:33:22;;;;;;;1.60;1.00;;;15.30;98.20;;;;;;5041558;28;20472;-78
2022/10/22 02:35:51;;;;;;;1.60;1.00;;;15.30;98.20;;;;;;5059059;28;20698;-76
2022/10/22 02:38:20;;;;;;;1.60;1.00;;;15.30;98.20;;;;;;5037453;28;20469;-79
2022/10/22 02:40:47;;;;;;;1.60;1.00;;;15.30;98.20;;;;;;5067509;28;20457;-76
2022/10/22 02:43:14;;;;;;;1.60;1.00;;;15.30;98.20;;;;;;5056458;28;20493;-78
2022/10/22 02:45:41;;;;;;;1.60;0.93;;;15.30;98.20;;;;;;5077322;28;20463;-76
2022/10/22 02:48:10;;;;;;;1.60;1.00;;;15.30;98.20;;;;;;5079974;27;20485;-76
2022/10/22 02:50:37;;;;;;;1.60;1.00;;;15.30;98.20;;;;;;5091127;28;20479;-77
2022/10/22 02:53:04;;;;;;;1.60;1.00;;;15.30;98.20;;;;;;5069455;28;21073;-77
2022/10/22 02:55:31;;;;;;;1.60;1.00;;;15.30;98.20;;;;;;5091699;28;20460;-77
2022/10/22 02:57:58;;;;;;;1.60;1.00;;;15.30;98.20;;;;;;5079766;28;20537;-77
2022/10/22 03:00:25;;;;;;;1.60;1.00;;;15.30;98.20;;;;;;5090971;28;20496;-78
2022/10/22 03:02:52;;;;;;;1.60;0.97;;;15.30;98.20;;;;;;5083947;28;20492;-77
2022/10/22 03:05:21;;;;;;;1.60;1.00;;;15.30;98.20;;;;;;5090527;28;21062;-79
2022/10/22 03:07:48;;;;;;;1.60;1.00;;;15.20;98.20;;;;;;5079817;28;20479;-78
2022/10/22 03:10:15;;;;;;;1.60;1.00;;;15.10;98.20;;;;;;5087613;28;20469;-77
2022/10/22 03:12:42;;;;;;;1.60;1.00;;;15.10;98.20;;;;;;5073235;28;20980;-76
2022/10/22 03:15:10;;;;;;;1.60;1.00;;;15.10;98.20;;;;;;5086827;28;20460;-77
2022/10/22 03:17:37;;;;;;;1.60;1.00;;;15.00;98.20;;;;;;5081746;28;20548;-75
2022/10/22 03:20:04;;;;;;;1.60;0.93;;;15.00;98.20;;;;;;5088938;28;20464;-77
2022/10/22 03:22:35;;;;;;;1.60;1.00;;;15.00;98.20;;;;;;5088762;28;20487;-76
2022/10/22 03:25:07;;;;;;;1.60;1.00;;;14.90;98.20;;;;;;5090023;28;20504;-77
2022/10/22 03:27:36;;;;;;;1.60;1.00;;;14.90;98.20;;;;;;5078766;28;20586;-77
2022/10/22 03:30:04;;;;;;;1.60;1.00;;;14.90;98.20;;;;;;5088561;28;20457;-78
2022/10/22 03:32:32;;;;;;;1.60;0.93;;;14.90;98.20;;;;;;5080252;28;20485;-77
2022/10/22 03:34:59;;;;;;;1.60;1.00;;;14.80;98.20;;;;;;5085760;28;20662;-76
2022/10/22 03:37:26;;;;;;;1.60;1.00;;;14.80;98.20;;;;;;5086639;28;20678;-76
2022/10/22 03:39:55;;;;;;;1.60;1.00;;;14.80;98.20;;;;;;5087144;28;20503;-77
2022/10/22 03:42:23;;;;;;;1.60;1.00;;;14.80;98.20;;;;;;5077930;28;20476;-78
2022/10/22 03:44:50;;;;;;;1.60;1.10;;;14.80;98.20;;;;;;5082820;28;20980;-77
2022/10/22 03:47:17;;;;;;;1.60;1.00;;;14.80;98.20;;;;;;5082144;28;20976;-77
2022/10/22 03:49:45;;;;;;;1.60;1.03;;;14.80;98.20;;;;;;5090353;28;20522;-80
2022/10/22 03:52:14;;;;;;;1.60;1.00;;;14.80;98.20;;;;;;5086040;28;20921;-79
2022/10/22 03:54:41;;;;;;;1.60;1.00;;;14.80;98.20;;;;;;5088866;28;20551;-77
2022/10/22 03:57:10;;;;;;;1.60;1.00;;;14.80;98.20;;;;;;5078825;28;20652;-77
2022/10/22 03:59:39;;;;;;;1.60;1.00;;;14.90;98.20;;;;;;5091513;28;20456;-77
2022/10/22 04:02:07;;;;;;;1.60;1.10;;;14.90;98.20;;;;;;5086165;28;20540;-77
2022/10/22 04:04:34;;;;;;;1.60;1.00;;;14.90;98.20;;;;;;5089342;28;20472;-78
2022/10/22 04:07:01;;;;;;;1.60;1.00;;;14.90;98.20;;;;;;5075716;28;20484;-77
2022/10/22 04:09:31;;;;;;;1.63;1.10;;;14.90;98.20;;;;;;5076776;28;20458;-75
2022/10/22 04:11:58;;;;;;;1.60;1.00;;;14.90;98.20;;;;;;5075515;28;20495;-74
2022/10/22 04:14:27;;;;;;;1.60;1.10;;;14.90;98.20;;;;;;5089851;28;20953;-73
2022/10/22 04:16:54;;;;;;;1.60;1.17;;;14.90;98.20;;;;;;5075008;28;21213;-76
2022/10/22 04:19:21;;;;;;;1.60;1.00;;;14.90;98.20;;;;;;5083163;28;20456;-74
2022/10/22 04:21:48;;;;;;;1.60;1.00;;;14.90;98.20;;;;;;5076476;28;20521;-76
2022/10/22 04:24:15;;;;;;;1.60;1.00;;;14.90;98.20;;;;;;5087935;28;20448;-78
2022/10/22 04:26:42;;;;;;;1.60;1.17;;;14.90;98.20;;;;;;5081117;28;20487;-77
2022/10/22 04:29:11;;;;;;;1.60;1.00;;;14.80;98.20;;;;;;5093875;28;20468;-77
2022/10/22 04:31:39;;;;;;;1.60;0.93;;;14.80;98.20;;;;;;5081200;28;20940;-76
2022/10/22 04:34:06;;;;;;;1.60;1.00;;;14.80;98.20;;;;;;5092021;28;20485;-76
2022/10/22 04:36:34;;;;;;;1.60;1.00;;;14.70;98.20;;;;;;5076776;28;20496;-77
2022/10/22 04:39:02;;;;;;;1.60;1.10;;;14.70;98.20;;;;;;5083833;28;20457;-76
2022/10/22 04:41:31;;;;;;;1.60;1.10;;;14.60;98.20;;;;;;5070321;28;20476;-77
2022/10/22 04:43:58;;;;;;;1.60;1.00;;;14.60;98.20;;;;;;5079782;28;20456;-76
2022/10/22 04:46:27;;;;;;;1.60;1.00;;;14.50;98.20;;;;;;5074718;28;20591;-78
2022/10/22 04:48:55;;;;;;;1.60;1.10;;;14.50;98.20;;;;;;5084290;28;20538;-77
2022/10/22 04:51:24;;;;;;;1.60;1.00;;;14.50;98.20;;;;;;5074233;28;20879;-78
2022/10/22 04:53:51;;;;;;;1.60;1.00;;;14.50;98.20;;;;;;5088830;28;20587;-76
2022/10/22 04:56:20;;;;;;;1.60;1.00;;;14.40;98.20;;;;;;5079317;27;20528;-77
2022/10/22 04:58:48;;;;;;;1.60;1.07;;;14.40;98.20;;;;;;5087415;28;20534;-77
2022/10/22 05:01:18;;;;;;;1.70;1.30;;;14.30;98.20;;;;;;5080219;28;21027;-76
2022/10/22 05:03:46;;;;;;;1.60;1.10;;;14.30;98.20;;;;;;5093274;28;20460;-77
2022/10/22 05:06:15;;;;;;;1.60;1.00;;;14.30;98.20;;;;;;5078040;28;20480;-76
2022/10/22 05:08:43;;;;;;;1.60;1.00;;;14.30;98.20;;;;;;5073769;28;20831;-77
2022/10/22 05:11:14;;;;;;;1.60;1.00;;;14.20;98.20;;;;;;5076404;28;20938;-77
2022/10/22 05:13:41;;;;;;;1.60;1.00;;;14.30;98.20;;;;;;5081654;28;20553;-76
2022/10/22 05:16:09;;;;;;;1.60;1.00;;;14.20;98.20;;;;;;5079137;28;20611;-77
2022/10/22 05:18:36;;;;;;;1.60;1.00;;;14.20;98.20;;;;;;5090192;28;20468;-77
2022/10/22 05:21:05;;;;;;;1.60;1.00;;;14.20;98.20;;;;;;5079754;28;20555;-75
2022/10/22 05:23:33;;;;;;;1.60;1.00;;;14.20;98.20;;;;;;5099609;28;20467;-77
2022/10/22 05:26:02;;;;;;;1.60;1.00;;;14.30;98.20;;;;;;5079755;28;20480;-78
2022/10/22 05:28:29;;;;;;;1.60;1.00;;;14.30;98.20;;;;;;5092077;28;20461;-77
2022/10/22 05:30:58;;;;;;;1.60;1.00;;;14.30;98.20;;;;;;5078436;28;20476;-77
2022/10/22 05:33:26;;;;;;;1.60;1.00;;;14.30;98.20;;;;;;5086385;28;20997;-76
2022/10/22 05:35:53;;;;;;;1.60;1.07;;;14.30;98.20;;;;;;5078824;28;20480;-76
2022/10/22 05:38:20;;;;;;;1.60;0.90;;;14.30;98.20;;;;;;5099619;28;20488;-76
2022/10/22 05:40:49;;;;;;;1.60;1.10;;;14.20;98.20;;;;;;5080222;28;20899;-76
2022/10/22 05:43:15;;;;;;;1.60;1.00;;;14.20;98.20;;;;;;5099200;28;20477;-78
2022/10/22 05:45:43;;;;;;;1.60;1.00;;;14.20;98.20;;;;;;5088160;28;20459;-76
2022/10/22 05:48:10;;;;;;;1.60;1.00;;;14.20;98.20;;;;;;5092625;28;20568;-76
2022/10/22 05:50:38;;;;;;;1.60;1.10;;;14.20;98.20;;;;;;5087751;28;20464;-76
2022/10/22 05:53:05;;;;;;;1.70;1.20;;;14.20;98.20;;;;;;5081290;28;20476;-75
2022/10/22 05:55:37;;;;;;;1.70;1.37;;;14.20;98.20;;;;;;5087650;28;20463;-75
2022/10/22 05:58:06;;;;;;;1.60;1.00;;;14.20;98.20;;;;;;5075131;28;20984;-75
2022/10/22 06:00:34;;;;;;;1.67;1.10;;;14.20;98.20;;;;;;5087438;28;20558;-75
2022/10/22 06:03:01;;;;;;;1.60;1.00;;;14.20;98.20;;;;;;5085651;28;20477;-75
2022/10/22 06:05:28;;;;;;;1.60;1.00;;;14.20;98.20;;;;;;5088258;28;20840;-76
2022/10/22 06:07:57;;;;;;;1.60;1.00;;;14.20;98.20;;;;;;5076800;28;20494;-75
2022/10/22 06:10:25;;;;;;;1.60;1.00;;;14.20;98.20;;;;;;5088320;28;20465;-76
2022/10/22 06:12:52;;;;;;;1.70;1.10;;;14.20;98.20;;;;;;5088020;28;20571;-75
2022/10/22 06:15:20;;;;;;;1.63;1.10;;;14.20;98.20;;;;;;5083895;28;20986;-75
2022/10/22 06:17:48;;;;;;;1.60;1.00;;;14.20;98.20;;;;;;5086941;28;20491;-75
2022/10/22 06:20:15;;;;;;;1.60;1.00;;;14.20;98.20;;;;;;5087926;28;20473;-75
2022/10/22 06:22:43;;;;;;;1.60;1.00;;;14.20;98.20;;;;;;5089127;28;20475;-76
2022/10/22 06:25:11;;;;;;;1.60;1.07;;;14.30;98.20;;;;;;5089413;28;20479;-75
2022/10/22 06:27:38;;;;;;;1.60;1.00;;;14.30;98.20;;;;;;5078573;28;20464;-76
2022/10/22 06:30:06;;;;;;;1.60;1.00;;;14.30;98.20;;;;;;5086549;28;20543;-75
2022/10/22 06:32:35;;;;;;;1.60;1.00;;;14.30;98.20;;;;;;5089519;28;20495;-76
2022/10/22 06:35:02;;;;;;;1.60;1.10;;;14.30;98.20;;;;;;5082090;28;21031;-76
2022/10/22 06:37:29;;;;;;;1.60;1.00;;;14.40;98.20;;;;;;5077177;28;20516;-76
2022/10/22 06:39:56;;;;;;;1.60;1.10;;;14.40;98.20;;;;;;5087101;28;20976;-76
2022/10/22 06:42:23;;;;;;;1.60;1.00;;;14.40;98.20;;;;;;5088072;28;20570;-76
2022/10/22 06:44:50;;;;;;;1.60;1.00;;;14.40;98.20;;;;;;5089872;28;20539;-76
2022/10/22 06:47:17;;;;;;;1.60;1.00;;;14.40;98.20;;;;;;5064571;28;20516;-77
2022/10/22 06:49:46;;;;;;;1.60;1.00;;;14.50;98.20;;;;;;5063734;28;20469;-77
2022/10/22 06:52:13;;;;;;;1.60;1.07;;;14.50;98.20;;;;;;5054845;28;20473;-76
2022/10/22 06:54:40;;;;;;;1.60;1.10;;;14.50;98.20;;;;;;5068881;28;20966;-76
2022/10/22 06:57:07;;;;;;;1.60;1.00;;;14.50;98.20;;;;;;5051863;28;20572;-75
2022/10/22 06:59:34;;;;;;;1.60;1.00;;;14.50;98.20;;;;;;5075441;28;20464;-75
2022/10/22 07:02:01;;;;;;;1.60;1.00;;;14.60;98.20;;;;;;5068493;28;20496;-75
2022/10/22 07:04:28;;;;;;;1.60;1.00;;;14.60;98.20;;;;;;5066889;28;20461;-75
2022/10/22 07:06:57;;;;;;;1.60;1.00;;;14.70;98.20;;;;;;5056773;28;20570;-76
2022/10/22 07:09:26;;;;;;;1.60;0.90;;;14.80;98.20;;;;;;5070141;28;20463;-76
2022/10/22 07:11:53;;;;;;;1.60;1.00;;;14.90;98.20;;;;;;5073833;28;20480;-76
2022/10/22 07:14:21;;;;;;;1.60;0.93;;;15.00;98.20;;;;;;5086035;28;20561;-76
2022/10/22 07:16:48;;;;;;;1.60;1.00;;;15.10;98.20;;;;;;5067031;28;20485;-77
2022/10/22 07:19:15;;;;;;;1.60;1.00;;;15.20;98.20;;;;;;5075209;28;21019;-77
2022/10/22 07:21:42;;;;;;;1.60;1.00;;;15.40;98.20;;;;;;5048880;28;21087;-78
2022/10/22 07:24:11;;;;;;;1.67;1.10;;;15.50;98.20;;;;;;5063955;28;20489;-78
2022/10/22 07:26:38;;;;;;;1.67;1.10;;;15.60;98.20;;;;;;5056814;28;20994;-75
2022/10/22 07:29:06;;;;;;;1.63;1.00;;;15.70;98.20;;;;;;5071971;28;20462;-77
2022/10/22 07:31:33;;;;;;;1.60;1.10;;;15.90;98.20;;;;;;5058180;28;20528;-76
2022/10/22 07:34:00;;;;;;;1.60;1.00;;;16.00;98.20;;;;;;5066055;28;20549;-76
2022/10/22 07:36:28;;;;;;;1.60;1.00;;;16.10;98.20;;;;;;5053515;28;20482;-76
2022/10/22 07:38:57;;;;;;;1.60;1.00;;;16.30;98.20;;;;;;5060909;28;20531;-77
2022/10/22 07:41:26;;;;;;;1.60;1.00;;;16.40;98.20;;;;;;5055257;28;20478;-75
2022/10/22 07:43:54;;;;;;;1.60;0.90;;;16.50;98.20;;;;;;5061896;28;20496;-77
2022/10/22 07:46:21;;;;;;;1.60;1.00;;;16.60;98.20;;;;;;5059339;28;20488;-77
2022/10/22 07:48:48;;;;;;;1.60;1.00;;;16.50;98.20;;;;;;5055170;28;20457;-76
2022/10/22 07:51:16;;;;;;;1.63;0.90;;;16.50;98.20;;;;;;5056799;28;20476;-76
2022/10/22 07:53:44;;;;;;;1.63;1.00;;;16.50;98.20;;;;;;5079246;28;20484;-77
2022/10/22 07:56:11;;;;;;;1.60;1.00;;;16.60;98.20;;;;;;5060428;28;20485;-77
2022/10/22 07:58:40;;;;;;;1.70;1.20;;;16.70;98.20;;;;;;5065785;28;20514;-77
2022/10/22 08:01:08;;;;;;;1.60;1.00;;;16.80;98.20;;;;;;5072584;28;20486;-76
2022/10/22 08:03:35;;;;;;;1.60;1.00;;;16.70;98.20;;;;;;5072115;28;20818;-77
2022/10/22 08:06:02;;;;;;;1.67;1.00;;;16.70;98.20;;;;;;5065520;28;20583;-76
2022/10/22 08:08:29;;;;;;;1.67;1.00;;;16.60;98.20;;;;;;5073220;28;20496;-75
2022/10/22 08:10:59;;;;;;;1.60;0.90;;;16.60;98.20;;;;;;5058247;28;20485;-78
2022/10/22 08:13:29;;;;;;;1.60;1.00;;;16.50;98.20;;;;;;5054484;28;21065;-76
2022/10/22 08:15:58;;;;;;;1.67;1.20;;;16.50;98.20;;;;;;5055586;28;20524;-77
2022/10/22 08:18:26;;;;;;;1.60;1.00;;;16.40;98.20;;;;;;5062312;28;20469;-77
2022/10/22 08:20:53;;;;;;;1.63;1.00;;;16.40;98.20;;;;;;5060829;28;20465;-78
2022/10/22 08:23:21;;;;;;;1.60;0.90;;;16.40;98.20;;;;;;5057192;28;20453;-76
2022/10/22 08:25:48;;;;;;;1.60;1.00;;;16.30;98.20;;;;;;5063652;28;20461;-76
2022/10/22 08:28:15;;;;;;;1.60;1.00;;;16.30;98.20;;;;;;5072806;28;20573;-77
2022/10/22 08:30:43;;;;;;;1.60;1.00;;;16.30;98.20;;;;;;5071427;28;20564;-77
2022/10/22 08:33:12;;;;;;;1.70;1.10;;;16.30;98.20;;;;;;5050489;28;20520;-76
2022/10/22 08:35:39;;;;;;;1.60;1.00;;;16.40;98.20;;;;;;5072317;28;20912;-75
2022/10/22 08:38:06;;;;;;;1.70;1.10;;;16.40;98.20;;;;;;5046333;28;20478;-75
2022/10/22 08:40:38;;;;;;;1.60;1.00;;;16.40;98.20;;;;;;5065114;28;20901;-76
2022/10/22 08:43:28;;;;;;;1.60;1.00;;;16.50;98.20;;;;;;5048675;28;20477;-77
2022/10/22 08:46:09;;;;;;;1.60;1.00;;;16.50;98.20;;;;;;5041939;28;20495;-76
2022/10/22 08:48:46;;;;;;;1.60;1.00;;;16.60;98.20;;;;;;5067657;28;21041;-78
2022/10/22 08:51:16;;;;;;;1.60;0.97;;;16.60;98.20;;;;;;5059350;28;21423;-77
2022/10/22 08:53:53;;;;;;;1.60;0.90;;;16.70;98.20;;;;;;5084345;28;20995;-76
2022/10/22 08:56:23;;;;;;;1.60;0.97;;;16.70;98.20;;;;;;5058315;28;20573;-77
2022/10/22 08:58:58;;;;;;;1.60;0.97;;;16.80;98.20;;;;;;5076842;28;20461;-76
2022/10/22 09:01:35;;;;;;;1.60;1.00;;;16.90;98.20;;;;;;5060539;28;20481;-77
2022/10/22 09:04:11;;;;;;;1.60;0.90;;;17.00;98.20;;;;;;5063678;28;20453;-77
2022/10/22 09:06:43;;;;;;;1.60;1.00;;;17.10;98.20;;;;;;5066166;28;20503;-77
2022/10/22 09:09:15;;;;;;;1.60;1.00;;;17.20;98.20;;;;;;5065598;28;20462;-77
2022/10/22 09:11:45;;;;;;;1.60;1.00;;;17.30;98.20;;;;;;5053904;28;20508;-78
2022/10/22 09:14:16;;;;;;;1.60;1.00;;;17.40;98.20;;;;;;5069127;28;20595;-77
2022/10/22 09:17:12;;;;;;;1.70;1.00;;;17.40;98.20;;;;;;5059063;28;20548;-80
2022/10/22 09:19:49;;;;;;;1.60;0.90;;;17.60;98.20;;;;;;5072746;28;20467;-78
2022/10/22 09:22:28;;;;;;;1.60;1.00;;;17.60;98.20;;;;;;5051175;28;20485;-77
2022/10/22 09:24:59;;;;;;;1.60;1.00;;;17.60;98.20;;;;;;5069567;28;20457;-77
2022/10/22 09:27:30;;;;;;;1.60;0.90;;;17.70;98.20;;;;;;5049440;28;20477;-79
2022/10/22 09:30:02;;;;;;;1.67;1.00;;;17.70;98.20;;;;;;5076571;28;20984;-79
2022/10/22 09:32:32;;;;;;;1.60;1.00;;;17.70;98.20;;;;;;5060310;28;20588;-78
2022/10/22 09:35:22;;;;;;;1.60;0.90;;;17.70;98.20;;;;;;5072828;28;20465;-80
2022/10/22 09:37:52;;;;;;;1.60;0.93;;;17.70;98.20;;;;;;5048224;28;20549;-79
2022/10/22 09:40:19;;;;;;;1.60;1.00;;;17.70;98.20;;;;;;5068051;28;20468;-76
2022/10/22 09:42:47;;;;;;;1.60;0.90;;;17.70;98.20;;;;;;5059454;28;20481;-77
2022/10/22 09:45:19;;;;;;;1.60;0.90;;;17.70;98.20;;;;;;5075351;28;20877;-76
2022/10/22 09:47:47;;;;;;;1.63;1.00;;;17.70;98.20;;;;;;5082133;28;20608;-77
2022/10/22 09:50:30;;;;;;;1.60;0.97;;;17.80;98.20;;;;;;5084234;28;20909;-76
2022/10/22 09:53:04;;;;;;;1.60;0.90;;;17.80;98.20;;;;;;5080365;28;21030;-76
2022/10/22 09:55:32;;;;;;;1.60;1.00;;;17.90;98.20;;;;;;5084061;28;20906;-78
2022/10/22 09:58:01;;;;;;;1.60;1.00;;;17.90;98.20;;;;;;5075744;28;20480;-78
2022/10/22 10:00:30;;;;;;;1.60;1.00;;;17.90;98.20;;;;;;5083621;28;20457;-78
2022/10/22 10:02:58;;;;;;;1.60;0.97;;;18.00;98.20;;;;;;5073209;28;20514;-77
2022/10/22 10:05:30;;;;;;;1.60;1.00;;;18.00;98.20;;;;;;5085465;28;20471;-78
2022/10/22 10:07:58;;;;;;;1.60;0.90;;;18.00;98.20;;;;;;5073944;28;20516;-78
2022/10/22 10:10:35;;;;;;;1.60;0.90;;;18.10;98.20;;;;;;5082108;28;20456;-77
2022/10/22 10:13:24;;;;;;;1.60;0.90;;;18.10;98.20;;;;;;5076070;28;20858;-77
2022/10/22 10:15:59;;;;;;;1.60;0.90;;;18.10;98.20;;;;;;5074458;28;20548;-77
2022/10/22 10:18:42;;;;;;;1.60;0.90;;;18.00;98.20;;;;;;5097345;28;20502;-78
2022/10/22 10:21:21;;;;;;;1.60;1.00;;;18.00;98.20;;;;;;5072244;28;20476;-77
2022/10/22 10:23:57;;;;;;;1.60;0.90;;;18.00;98.20;;;;;;5095303;28;20456;-77
2022/10/22 10:26:29;;;;;;;1.60;0.97;;;18.00;98.20;;;;;;5071661;28;20491;-77
2022/10/22 10:29:10;;;;;;;1.60;1.00;;;18.00;98.20;;;;;;5084262;28;20472;-77
2022/10/22 10:31:49;;;;;;;1.60;1.00;;;18.00;98.20;;;;;;5075200;28;20856;-78
2022/10/22 10:34:29;;;;;;;1.60;1.00;;;18.00;98.20;;;;;;5080692;28;21228;-77
2022/10/22 10:37:22;;;;;;;1.60;1.00;;;18.00;98.20;;;;;;5080762;28;20493;-79
2022/10/22 10:40:14;;;;;;;1.60;0.90;;;18.00;98.20;;;;;;5085360;28;20760;-76
2022/10/22 10:42:46;;;;;;;1.60;0.90;;;18.00;98.20;;;;;;5079202;28;20486;-77
2022/10/22 10:45:20;;;;;;;1.60;0.90;;;18.00;98.20;;;;;;5082017;28;20461;-76
2022/10/22 10:48:15;;;;;;;1.60;0.90;;;18.00;98.20;;;;;;5073160;28;20487;-77
2022/10/22 10:50:56;;;;;;;1.60;1.00;;;17.90;98.20;;;;;;5082309;28;20953;-77
2022/10/22 10:53:37;;;;;;;1.60;0.90;;;17.90;98.20;;;;;;5070809;28;20488;-77
2022/10/22 10:56:17;;;;;;;1.60;0.90;;;17.90;98.20;;;;;;5072094;28;20557;-76
2022/10/22 10:58:53;;;;;;;1.60;0.90;;;17.80;98.20;;;;;;5088080;28;20460;-77
2022/10/22 11:01:29;;;;;;;1.60;1.00;;;17.80;98.20;;;;;;5075293;28;20472;-76
2022/10/22 11:04:21;;;;;;;1.60;0.90;;;17.80;98.20;;;;;;5090319;28;21544;-76
2022/10/22 11:06:50;;;;;;;1.60;0.90;;;17.70;98.20;;;;;;5073099;28;21048;-76
2022/10/22 11:09:25;;;;;;;1.60;0.90;;;17.70;98.20;;;;;;5080501;28;20910;-77
2022/10/22 11:11:57;;;;;;;1.60;0.90;;;17.70;98.20;;;;;;5073017;28;20487;-77
2022/10/22 11:14:30;;;;;;;1.60;1.00;;;17.70;98.20;;;;;;5083173;28;20485;-77
2022/10/22 11:17:02;;;;;;;1.60;0.90;;;17.60;98.20;;;;;;5072177;28;20506;-77
2022/10/22 11:19:37;;;;;;;1.60;1.00;;;17.60;98.20;;;;;;5082387;28;20549;-77
2022/10/22 11:22:11;;;;;;;1.60;1.00;;;17.60;98.20;;;;;;5072421;28;20479;-77
2022/10/22 11:24:49;;;;;;;1.60;1.00;;;17.60;98.20;;;;;;5079917;28;20456;-76
2022/10/22 11:27:25;;;;;;;1.60;0.90;;;17.60;98.20;;;;;;5072630;28;20566;-76
2022/10/22 11:29:59;;;;;;;1.60;0.90;;;17.60;98.20;;;;;;5080859;28;21028;-77
2022/10/22 11:32:28;;;;;;;1.60;0.90;;;17.60;98.20;;;;;;5076374;27;20480;-76
2022/10/22 11:35:02;;;;;;;1.60;0.90;;;17.60;98.20;;;;;;5085348;28;20883;-78
2022/10/22 11:37:37;;;;;;;1.60;1.00;;;17.60;98.20;;;;;;5076356;28;20518;-77
2022/10/22 11:40:14;;;;;;;1.60;0.90;;;17.70;98.20;;;;;;5077460;28;20515;-77
2022/10/22 11:42:46;;;;;;;1.60;1.10;;;17.60;98.20;;;;;;5074876;28;20614;-77
2022/10/22 11:45:30;;;;;;;1.53;0.90;;;17.60;98.20;;;;;;5079734;28;20830;-76
2022/10/22 11:48:04;;;;;;;1.60;0.90;;;17.60;98.20;;;;;;5072637;28;20887;-76
2022/10/22 11:50:46;;;;;;;1.60;0.90;;;17.60;98.20;;;;;;5077494;28;20992;-76
2022/10/22 11:53:20;;;;;;;1.60;0.90;;;17.70;98.20;;;;;;5068965;28;20537;-76
2022/10/22 11:55:51;;;;;;;1.60;1.00;;;17.70;98.20;;;;;;5075062;28;20562;-76
2022/10/22 11:58:31;;;;;;;1.60;1.00;;;17.80;98.20;;;;;;5081193;28;20460;-76
2022/10/22 12:01:22;;;;;;;1.60;1.00;;;17.90;98.20;;;;;;5070206;28;20488;-76
2022/10/22 12:03:51;;;;;;;1.60;0.90;;;18.00;98.20;;;;;;5080681;28;20897;-76
2022/10/22 12:06:24;;;;;;;1.57;0.90;;;18.10;98.20;;;;;;5071658;28;20548;-76
2022/10/22 12:08:58;;;;;;;1.60;0.90;;;18.10;98.20;;;;;;5087584;28;20496;-77
2022/10/22 12:11:35;;;;;;;1.60;0.90;;;18.30;98.20;;;;;;5069398;28;20558;-76
2022/10/22 12:14:17;;;;;;;2.00;1.40;;;18.40;98.20;;;;;;5071009;28;20791;-76
2022/10/22 12:16:47;;;;;;;1.60;1.00;;;18.50;98.20;;;;;;5069791;28;20579;-77
2022/10/22 12:19:18;;;;;;;1.60;0.90;;;18.50;98.20;;;;;;5089915;28;20464;-78
2022/10/22 12:21:50;;;;;;;1.60;0.90;;;18.70;98.20;;;;;;5065906;22;20497;-76
2022/10/22 12:24:21;;;;;;;1.60;0.90;;;18.70;98.20;;;;;;5062718;28;20556;-76
2022/10/22 12:26:51;;;;;;;1.60;0.90;;;18.80;98.20;;;;;;5041183;28;20497;-77
2022/10/22 12:29:21;;;;;;;1.60;0.90;;;18.90;98.20;;;;;;5066094;28;21041;-77
2022/10/22 12:31:49;;;;;;;1.60;0.90;;;19.00;98.20;;;;;;5043549;28;21057;-76
2022/10/22 12:34:21;;;;;;;1.60;0.90;;;19.00;98.20;;;;;;5057516;28;20489;-76
2022/10/22 12:36:58;;;;;;;1.60;0.93;;;19.00;98.20;;;;;;5048953;28;20504;-76
2022/10/22 12:39:28;;;;;;;1.60;0.90;;;19.00;98.20;;;;;;5058953;28;20544;-77
2022/10/22 12:41:58;;;;;;;1.60;0.90;;;19.10;98.20;;;;;;5036659;28;21068;-76
2022/10/22 12:44:27;;;;;;;1.60;0.90;;;19.20;98.20;;;;;;5058511;28;20466;-76
2022/10/22 12:46:55;;;;;;;1.60;0.90;;;19.20;98.20;;;;;;5047449;28;20493;-76
2022/10/22 12:49:28;;;;;;;1.60;0.90;;;19.30;98.20;;;;;;5058071;28;20519;-76
2022/10/22 12:51:56;;;;;;;1.60;0.90;;;19.40;98.20;;;;;;5041032;28;20493;-76
2022/10/22 12:54:30;;;;;;;1.60;0.90;;;19.40;98.20;;;;;;5052170;28;20485;-76
2022/10/22 12:57:00;;;;;;;1.60;0.90;;;19.30;98.20;;;;;;5053117;28;21156;-76
2022/10/22 12:59:32;;;;;;;1.60;0.90;;;19.30;98.20;;;;;;5057833;28;20852;-75
2022/10/22 13:02:00;;;;;;;1.60;0.90;;;19.50;98.20;;;;;;5035958;28;20500;-75
2022/10/22 13:04:36;;;;;;;1.60;0.90;;;19.80;98.20;;;;;;5053824;28;20462;-76
2022/10/22 13:07:13;;;;;;;1.60;0.90;;;19.90;98.20;;;;;;5045454;28;20859;-76